Share

Hazlehurst, GA

Hazlehurst (KAZE) Elev 256 ft | 31.88 °N, 82.65 °W | Change Station

Current weather conditions updated 15 minutes ago

Clear
Clear
49 °F
Feels Like 49 °F
N
5
Wind Variable Wind from ESE
Sunrise 7:00 AM
Sunset 8:00 PM
Moon Waning Gibbous

Tomorrow is forecast to be Warmer than today.

Pressure 30.30 in
Visibility 10.0 miles
Clouds Clear
Dew Point 44 °F
Humidity 81%
Rainfall 0.00 in
Snow Depth Not available.
UV 0 out of 16
Pollen 9.80 out of 12
Air Quality Not available.
Flu Activity Sporadic
METAR KAZE 170335Z AUTO 11004KT 10SM CLR 10/07 A3030 RMK AO2 T00960065

More Conditions Fewer Conditions

Pressure 30.30 in
Visibility 10.0 miles
Clouds Clear
Dew Point 44 °F
Humidity 81%
Rainfall 0.00 in
Snow Depth Not available.
UV 0 out of 16
Pollen 9.80 out of 12
Air Quality Not available.
Flu Activity Sporadic
METAR KAZE 170335Z AUTO 11004KT 10SM CLR 10/07 A3030 RMK AO2 T00960065

More Conditions Fewer Conditions

10-Day Forecast

Almanac

Astronomy

Apr. 16, 2014 Rise Set
Actual Time 7:00 AM EDT 8:00 PM EDT
Civil Twilight 6:35 AM EDT 8:25 PM EDT
Nautical Twilight 6:05 AM EDT 8:55 PM EDT
Astronomical Twilight 5:35 AM EDT 9:26 PM EDT
Moon 9:37 PM EDT (4/16) 7:51 AM EDT (4/16)
Length of Visible Light 13h 49m
Length of Day
12h 59m
Tomorrow will be 1m 51s longer.
Waning Gibbous, 96% of the Moon is Illuminated
Today
Waning Gibbous
Apr 22
Last Quarter
Apr 29
New
May 6
First Quarter
May 14
Full

Today's Extremes

State Highs State Lows

Community

  • symphony in blue....
    symphony in blue....
  • Dawn Surprise
    Dawn Surprise
  • Yucca delight
    Yucca delight
  • Sunset inside of the Ocean
    Sunset inside of the Ocean
  • Lunar eclipse 15 April 2014
    Lunar eclipse 15 April 2014

WunderPhotos

Upload Photos

1,701,845 photos uploaded!

WunderBlogs® & News

Nearby

Snow Depth

Station Depth Elevation
No new snow has been reported.

Coastal Water Temperatures

Place Temperature
No Stations Reporting

Earthquake Activity

City Distance Mag. Time & Date
No recent earthquake activity has been reported nearby.
Minimum magnitude displayed is 2.5.

Nearby Weather Stations

Station Location Temp. Windchill Dew Point Humidity Wind Precip. Elev Updated Type
Pineline Ave, Hazlehurst, GA 47.1 °F 47 °F 47 °F 98% ESE  at  0.0 mph - / hr 276 ft 11:47 PM EDT Normal
Jacksonville, GA 44.6 °F 45 °F 43 °F 92% WSW  at  0.0 mph 0.00 in / hr 171 ft 11:39 PM EDT Normal
Appling, Baxley, GA 49.6 °F 49 °F 43 °F 79% ESE  at  3.8 mph 0.00 in / hr 233 ft 10:23 PM EDT Rapid Fire
RAWS BAXLEY GA, Baxley, GA 48 °F 47 °F 41 °F 78% West  at  4 mph 0.00 in / hr 194 ft 11:04 PM EDT MADIS
RAWS MCRAE GA, McRae, GA 48 °F 47 °F 41 °F 77% ESE  at  4 mph 0.00 in / hr 201 ft 11:03 PM EDT MADIS

Show More Stations Show Fewer Stations

What do you think?

We're not finished. Please let us know what you like, what you don't like, and what you are still missing.